Time;durP1;ratioP1;P1;durP2;ratioP2;P2;SDS_P1;SDS_P2;PMS_P1;PMS_P2;Temp;Humidity;BMP_temperature;BMP_pressure;BME280_temperature;BME280_humidity;BME280_pressure;Samples;Min_cycle;Max_cycle;Signal;HPM_P1;HPM_P2
2022/04/11 00:00:06;;;;;;;4.00;2.65;;;10.50;67.30;;;;;;5048968;28;20571;-75
2022/04/11 00:02:31;;;;;;;3.70;2.53;;;10.50;67.30;;;;;;5068718;28;21643;-75
2022/04/11 00:04:57;;;;;;;4.13;2.60;;;10.40;67.30;;;;;;5070690;28;20028;-73
2022/04/11 00:07:24;;;;;;;3.83;2.60;;;10.40;67.30;;;;;;5036040;28;20044;-74
2022/04/11 00:09:50;;;;;;;4.00;2.55;;;10.40;67.40;;;;;;5044387;28;20025;-74
2022/04/11 00:12:16;;;;;;;3.65;2.55;;;10.30;67.40;;;;;;5035508;28;20090;-74
2022/04/11 00:14:41;;;;;;;3.65;2.72;;;10.30;67.40;;;;;;5052962;28;20031;-75
2022/04/11 00:17:07;;;;;;;3.42;2.58;;;10.20;67.40;;;;;;5034341;28;20024;-74
2022/04/11 00:19:33;;;;;;;3.75;2.67;;;10.20;67.40;;;;;;5052739;28;20030;-74
2022/04/11 00:21:58;;;;;;;3.58;2.60;;;10.20;67.40;;;;;;5047701;28;20376;-75
2022/04/11 00:24:24;;;;;;;3.45;2.55;;;10.10;67.30;;;;;;5034610;28;20071;-74
2022/04/11 00:26:50;;;;;;;4.30;2.65;;;10.10;67.40;;;;;;5051582;28;20039;-74
2022/04/11 00:29:16;;;;;;;4.38;2.80;;;10.10;67.50;;;;;;5035298;28;20541;-74
2022/04/11 00:31:41;;;;;;;3.15;2.35;;;10.10;67.60;;;;;;5037210;28;20047;-74
2022/04/11 00:34:07;;;;;;;3.65;2.47;;;10.00;67.50;;;;;;5053272;28;20025;-75
2022/04/11 00:36:33;;;;;;;5.53;2.83;;;10.00;67.50;;;;;;5051096;28;20040;-74
2022/04/11 00:38:59;;;;;;;4.55;2.70;;;10.00;67.50;;;;;;5055169;28;20115;-74
2022/04/11 00:41:25;;;;;;;3.92;2.72;;;9.90;67.50;;;;;;5042658;28;20067;-74
2022/04/11 00:43:51;;;;;;;4.10;2.58;;;9.90;67.60;;;;;;5069201;28;20063;-75
2022/04/11 00:46:17;;;;;;;3.90;2.67;;;9.90;67.60;;;;;;5040770;28;20060;-74
2022/04/11 00:48:42;;;;;;;3.80;2.53;;;9.80;67.60;;;;;;5051403;28;20640;-75
2022/04/11 00:51:21;;;;;;;4.05;2.60;;;9.80;67.50;;;;;;5054734;28;20408;-75
2022/04/11 00:53:48;;;;;;;3.60;2.53;;;9.80;67.60;;;;;;5055332;28;20108;-74
2022/04/11 00:56:17;;;;;;;3.75;2.42;;;9.80;67.60;;;;;;5056472;28;20500;-74
2022/04/11 00:58:43;;;;;;;5.18;3.00;;;9.70;67.60;;;;;;5075404;28;20036;-74
2022/04/11 01:01:09;;;;;;;3.38;2.22;;;9.70;67.60;;;;;;5051848;28;20040;-75
2022/04/11 01:03:38;;;;;;;3.42;2.40;;;9.70;67.60;;;;;;5053832;28;20059;-74
2022/04/11 01:06:06;;;;;;;3.78;2.50;;;9.70;67.70;;;;;;5042127;28;20108;-74
2022/04/11 01:08:32;;;;;;;3.47;2.20;;;9.60;67.70;;;;;;5020074;28;20037;-74
2022/04/11 01:11:00;;;;;;;3.80;2.38;;;9.60;67.80;;;;;;5051502;28;20091;-75
2022/04/11 01:13:27;;;;;;;4.45;2.58;;;9.60;67.80;;;;;;5003568;28;20034;-74
2022/04/11 01:16:01;;;;;;;3.95;2.42;;;9.50;67.70;;;;;;5025229;28;20403;-75
2022/04/11 01:18:27;;;;;;;3.25;2.50;;;9.50;67.70;;;;;;5018428;28;20458;-75
2022/04/11 01:20:53;;;;;;;2.95;2.10;;;9.50;68.30;;;;;;5029476;28;20041;-74
2022/04/11 01:23:20;;;;;;;3.60;2.63;;;9.40;67.70;;;;;;5056021;28;20076;-75
2022/04/11 01:25:53;;;;;;;3.50;2.28;;;9.40;67.70;;;;;;5016924;28;20033;-75
2022/04/11 01:28:21;;;;;;;3.83;2.50;;;9.40;67.80;;;;;;5013155;28;20041;-75
2022/04/11 01:30:53;;;;;;;4.05;2.28;;;9.40;67.80;;;;;;5042933;28;20041;-75
2022/04/11 01:33:26;;;;;;;2.45;2.10;;;9.40;67.80;;;;;;5023147;28;20026;-74
2022/04/11 01:35:53;;;;;;;3.45;2.40;;;9.30;67.80;;;;;;5054989;28;20037;-74
2022/04/11 01:38:19;;;;;;;3.22;2.30;;;9.30;67.80;;;;;;5034316;28;20065;-74
2022/04/11 01:40:53;;;;;;;3.47;2.25;;;9.30;67.80;;;;;;5050616;28;20485;-74
2022/04/11 01:43:19;;;;;;;2.63;2.13;;;9.30;67.90;;;;;;5051957;28;20026;-74
2022/04/11 01:45:45;;;;;;;3.00;2.15;;;9.20;67.80;;;;;;5032719;28;20112;-75
2022/04/11 01:48:12;;;;;;;3.83;2.30;;;9.20;67.80;;;;;;5029626;28;20037;-74
2022/04/11 01:50:38;;;;;;;3.33;2.30;;;9.20;67.80;;;;;;5051537;28;20062;-74
2022/04/11 01:53:16;;;;;;;3.50;2.30;;;9.20;67.80;;;;;;5018891;28;20119;-75
2022/04/11 01:55:43;;;;;;;3.08;2.20;;;9.10;68.50;;;;;;5033683;28;20041;-75
2022/04/11 01:58:10;;;;;;;3.22;2.30;;;9.10;67.80;;;;;;5036897;28;20171;-76
2022/04/11 02:00:37;;;;;;;6.07;2.63;;;9.10;67.90;;;;;;5039736;28;20689;-75
2022/04/11 02:03:04;;;;;;;3.85;2.45;;;9.10;67.80;;;;;;5058951;28;20526;-75
2022/04/11 02:05:30;;;;;;;3.33;2.28;;;9.10;67.90;;;;;;5034312;28;20054;-74
2022/04/11 02:07:56;;;;;;;3.45;2.47;;;9.00;67.80;;;;;;5034118;28;20038;-75
2022/04/11 02:10:27;;;;;;;3.08;2.30;;;9.00;67.80;;;;;;5070770;28;20492;-75
2022/04/11 02:12:53;;;;;;;3.38;2.25;;;9.00;67.90;;;;;;5037541;28;20388;-75
2022/04/11 02:15:19;;;;;;;2.88;2.35;;;9.00;67.90;;;;;;5040288;28;20483;-76
2022/04/11 02:17:50;;;;;;;3.42;2.45;;;8.90;67.80;;;;;;5045214;28;20111;-75
2022/04/11 02:20:16;;;;;;;3.13;2.25;;;8.90;67.90;;;;;;5054263;28;20040;-75
2022/04/11 02:22:49;;;;;;;3.97;2.40;;;8.90;67.90;;;;;;5059004;28;20032;-75
2022/04/11 02:25:16;;;;;;;2.95;2.17;;;8.90;67.90;;;;;;5056366;28;20551;-75
2022/04/11 02:27:44;;;;;;;3.05;2.25;;;8.90;67.90;;;;;;5062168;28;20054;-75
2022/04/11 02:30:11;;;;;;;3.33;2.35;;;8.90;68.00;;;;;;5069087;28;20036;-75
2022/04/11 02:32:37;;;;;;;3.15;2.40;;;8.80;67.90;;;;;;5068946;28;20424;-76
2022/04/11 02:35:04;;;;;;;3.22;2.20;;;8.80;68.20;;;;;;5038321;28;20029;-75
2022/04/11 02:37:30;;;;;;;3.53;2.17;;;8.80;68.00;;;;;;5055061;28;20047;-75
2022/04/11 02:39:57;;;;;;;3.40;2.38;;;8.80;68.00;;;;;;5049881;28;20021;-75
2022/04/11 02:42:24;;;;;;;2.97;2.15;;;8.80;68.00;;;;;;5050529;28;20032;-75
2022/04/11 02:44:54;;;;;;;3.30;2.50;;;8.70;68.00;;;;;;5046377;28;20082;-75
2022/04/11 02:47:20;;;;;;;3.90;2.20;;;8.70;68.00;;;;;;5055029;28;20028;-75
2022/04/11 02:49:48;;;;;;;3.85;2.50;;;8.70;68.00;;;;;;5037662;28;20765;-76
2022/04/11 02:52:29;;;;;;;3.65;2.38;;;8.70;68.00;;;;;;5056758;28;20025;-74
2022/04/11 02:54:56;;;;;;;2.97;2.40;;;8.60;67.90;;;;;;5036544;28;20035;-74
2022/04/11 02:57:22;;;;;;;3.15;2.38;;;8.60;68.60;;;;;;5036418;28;20029;-74
2022/04/11 02:59:49;;;;;;;4.07;2.40;;;8.60;68.00;;;;;;5054039;28;20154;-75
2022/04/11 03:02:15;;;;;;;3.60;2.40;;;8.60;68.00;;;;;;5053143;28;20055;-74
2022/04/11 03:04:41;;;;;;;3.13;2.42;;;8.60;68.00;;;;;;5035318;28;20214;-75
2022/04/11 03:07:18;;;;;;;4.78;2.47;;;8.60;68.00;;;;;;5040596;28;20464;-74
2022/04/11 03:09:45;;;;;;;3.28;2.30;;;8.60;68.10;;;;;;5051845;28;20043;-74
2022/04/11 03:12:11;;;;;;;4.50;2.63;;;8.50;68.10;;;;;;5033562;28;20052;-75
2022/04/11 03:14:37;;;;;;;4.00;2.30;;;8.50;68.00;;;;;;5035949;28;20028;-74
2022/04/11 03:17:05;;;;;;;2.88;2.22;;;8.50;68.10;;;;;;5035341;28;20469;-75
2022/04/11 03:19:33;;;;;;;3.33;2.22;;;8.50;68.00;;;;;;5019840;28;20431;-74
2022/04/11 03:21:59;;;;;;;2.65;2.17;;;8.40;68.00;;;;;;5034502;28;20106;-73
2022/04/11 03:24:25;;;;;;;2.92;2.28;;;8.40;68.00;;;;;;5035485;28;20040;-74
2022/04/11 03:26:52;;;;;;;3.28;2.30;;;8.40;68.10;;;;;;5035612;28;20039;-75
2022/04/11 03:29:23;;;;;;;3.10;2.35;;;8.40;68.10;;;;;;5063288;28;20401;-74
2022/04/11 03:31:50;;;;;;;3.80;2.60;;;8.40;68.10;;;;;;5051852;28;20040;-74
2022/04/11 03:34:17;;;;;;;3.35;2.35;;;8.30;68.10;;;;;;5051489;28;20597;-75
2022/04/11 03:36:43;;;;;;;2.90;2.38;;;8.30;68.10;;;;;;5033331;28;20062;-74
2022/04/11 03:39:09;;;;;;;3.67;2.20;;;8.30;68.10;;;;;;5040781;28;20033;-74
2022/04/11 03:41:38;;;;;;;4.22;2.55;;;8.30;68.10;;;;;;5036475;28;20023;-74
2022/04/11 03:44:13;;;;;;;3.70;2.40;;;8.30;68.20;;;;;;5069533;28;20029;-74
2022/04/11 03:46:40;;;;;;;3.03;2.38;;;8.30;68.20;;;;;;5035522;28;20079;-75
2022/04/11 03:49:09;;;;;;;3.45;2.50;;;8.30;68.20;;;;;;5036101;28;20040;-74
2022/04/11 03:51:35;;;;;;;3.45;2.40;;;8.20;68.10;;;;;;5035015;28;20029;-74
2022/04/11 03:54:01;;;;;;;3.28;2.40;;;8.20;68.20;;;;;;5034151;28;20024;-75
2022/04/11 03:56:26;;;;;;;4.07;2.75;;;8.20;68.20;;;;;;5059138;28;20035;-74
2022/04/11 03:58:52;;;;;;;3.53;2.42;;;8.20;68.20;;;;;;5039663;28;20103;-76
2022/04/11 04:01:18;;;;;;;3.47;2.33;;;8.20;68.20;;;;;;5051117;28;20021;-74
2022/04/11 04:03:44;;;;;;;3.55;2.42;;;8.10;68.20;;;;;;5037745;28;20039;-74
2022/04/11 04:06:11;;;;;;;2.85;2.35;;;8.10;68.20;;;;;;5051177;28;20496;-74
2022/04/11 04:08:41;;;;;;;3.53;2.72;;;8.10;68.20;;;;;;5052006;28;20111;-74
2022/04/11 04:11:13;;;;;;;2.78;2.30;;;8.10;68.20;;;;;;5038470;28;20032;-74
2022/04/11 04:13:48;;;;;;;3.13;2.35;;;8.00;68.20;;;;;;5036177;28;20055;-74
2022/04/11 04:16:14;;;;;;;3.20;2.45;;;8.00;68.90;;;;;;5053151;28;20097;-74
2022/04/11 04:18:45;;;;;;;3.13;2.30;;;8.00;68.30;;;;;;5041162;28;20032;-75
2022/04/11 04:21:11;;;;;;;3.30;2.53;;;8.00;68.30;;;;;;5041724;28;20036;-74
2022/04/11 04:23:38;;;;;;;3.50;2.47;;;8.00;68.30;;;;;;5037398;28;20465;-74
2022/04/11 04:26:05;;;;;;;4.93;2.90;;;8.00;68.30;;;;;;5049191;28;20139;-75
2022/04/11 04:28:30;;;;;;;3.40;2.60;;;7.90;68.30;;;;;;5034875;28;20070;-74
2022/04/11 04:30:56;;;;;;;4.28;2.92;;;7.90;68.30;;;;;;5034837;28;20406;-74
2022/04/11 04:33:22;;;;;;;3.63;2.67;;;7.90;68.30;;;;;;5039133;28;20029;-74
2022/04/11 04:35:49;;;;;;;3.30;2.45;;;7.90;68.30;;;;;;5024231;28;20063;-74
2022/04/11 04:38:15;;;;;;;3.80;2.50;;;7.90;69.00;;;;;;5059059;28;20032;-74
2022/04/11 04:40:48;;;;;;;2.88;2.42;;;7.80;68.30;;;;;;5049581;28;20024;-74
2022/04/11 04:43:18;;;;;;;3.00;2.53;;;7.80;68.30;;;;;;5038973;28;20460;-74
2022/04/11 04:45:46;;;;;;;3.58;2.60;;;7.80;68.40;;;;;;5033545;28;20037;-75
2022/04/11 04:48:25;;;;;;;3.22;2.53;;;7.80;68.40;;;;;;5050858;28;20036;-74
2022/04/11 04:50:51;;;;;;;3.85;2.72;;;7.80;68.40;;;;;;5049488;28;20028;-75
2022/04/11 04:53:17;;;;;;;3.83;2.50;;;7.80;68.40;;;;;;5032978;28;20063;-75
2022/04/11 04:55:46;;;;;;;4.07;2.53;;;7.70;68.40;;;;;;5036329;28;20043;-75
2022/04/11 04:58:12;;;;;;;3.28;2.60;;;7.70;68.40;;;;;;5065912;28;20071;-75
2022/04/11 05:00:38;;;;;;;3.03;2.33;;;7.70;68.40;;;;;;5040270;28;20112;-75
2022/04/11 05:03:06;;;;;;;3.75;2.55;;;7.70;68.50;;;;;;5050291;28;20036;-75
2022/04/11 05:05:32;;;;;;;3.58;2.58;;;7.70;68.50;;;;;;5049335;28;20064;-75
2022/04/11 05:08:00;;;;;;;3.88;2.80;;;7.70;68.50;;;;;;5050547;28;20073;-75
2022/04/11 05:10:30;;;;;;;3.65;2.70;;;7.60;68.50;;;;;;5033214;28;20048;-76
2022/04/11 05:12:56;;;;;;;3.42;2.70;;;7.60;68.50;;;;;;5045436;28;20036;-75
2022/04/11 05:15:23;;;;;;;3.58;2.45;;;7.60;68.50;;;;;;5036032;28;20039;-75
2022/04/11 05:17:54;;;;;;;4.30;3.00;;;7.60;68.50;;;;;;5034788;28;20059;-75
2022/04/11 05:20:21;;;;;;;3.38;2.58;;;7.60;68.60;;;;;;5033251;28;20083;-74
2022/04/11 05:22:47;;;;;;;4.20;2.80;;;7.60;68.60;;;;;;5048946;28;20059;-74
2022/04/11 05:25:14;;;;;;;4.00;2.78;;;7.60;68.60;;;;;;5034858;28;20033;-75
2022/04/11 05:27:39;;;;;;;3.85;2.55;;;7.50;68.60;;;;;;5038068;28;20097;-74
2022/04/11 05:30:06;;;;;;;3.90;2.58;;;7.50;68.60;;;;;;5046458;28;20044;-74
2022/04/11 05:32:34;;;;;;;3.70;2.63;;;7.50;68.70;;;;;;5048889;28;20036;-75
2022/04/11 05:35:00;;;;;;;4.32;2.90;;;7.50;68.70;;;;;;5050091;28;20059;-74
2022/04/11 05:37:26;;;;;;;4.38;2.90;;;7.50;68.70;;;;;;5052886;28;20044;-77
2022/04/11 05:39:52;;;;;;;3.53;2.67;;;7.50;68.70;;;;;;5048492;28;20025;-74
2022/04/11 05:42:21;;;;;;;4.13;2.90;;;7.50;68.70;;;;;;5067461;28;20074;-74
2022/04/11 05:44:48;;;;;;;3.35;2.50;;;7.50;68.80;;;;;;5037498;28;20028;-75
2022/04/11 05:47:13;;;;;;;3.63;2.58;;;7.50;68.80;;;;;;5040264;28;20039;-74
2022/04/11 05:49:46;;;;;;;3.70;2.83;;;7.50;68.80;;;;;;5056094;28;20405;-73
2022/04/11 05:52:16;;;;;;;4.15;3.13;;;7.40;68.80;;;;;;5036751;28;20030;-73
2022/04/11 05:54:42;;;;;;;4.55;3.38;;;7.50;68.90;;;;;;5065006;28;20534;-73
2022/04/11 05:57:09;;;;;;;3.72;2.83;;;7.40;68.90;;;;;;5053859;28;20036;-73
2022/04/11 05:59:35;;;;;;;5.03;3.28;;;7.40;68.90;;;;;;5053749;28;20039;-73
2022/04/11 06:02:01;;;;;;;3.72;2.88;;;7.40;68.90;;;;;;5037240;28;20119;-73
2022/04/11 06:04:27;;;;;;;4.20;3.10;;;7.40;69.00;;;;;;5046017;28;20060;-73
2022/04/11 06:06:53;;;;;;;4.60;3.10;;;7.40;69.00;;;;;;5038237;28;20414;-74
2022/04/11 06:09:18;;;;;;;4.20;3.10;;;7.40;69.00;;;;;;5031856;28;20022;-73
2022/04/11 06:11:44;;;;;;;4.25;3.08;;;7.40;69.00;;;;;;5013882;28;20124;-73
2022/04/11 06:14:12;;;;;;;4.43;3.20;;;7.40;69.00;;;;;;4997816;28;20056;-74
2022/04/11 06:16:37;;;;;;;3.95;3.05;;;7.40;69.10;;;;;;5030181;28;20041;-73
2022/04/11 06:19:03;;;;;;;4.53;3.20;;;7.40;69.10;;;;;;5030461;28;20025;-74
2022/04/11 06:21:29;;;;;;;3.75;3.10;;;7.40;69.10;;;;;;5030225;28;20044;-74
2022/04/11 06:23:55;;;;;;;4.55;3.50;;;7.40;69.10;;;;;;4997275;28;20172;-74
2022/04/11 06:26:23;;;;;;;3.63;2.97;;;7.50;69.10;;;;;;5001369;28;20045;-74
2022/04/11 06:28:49;;;;;;;4.35;2.90;;;7.40;69.10;;;;;;5030215;28;20453;-74
2022/04/11 06:31:15;;;;;;;4.82;3.15;;;7.40;69.10;;;;;;5030218;28;20705;-74
2022/04/11 06:33:44;;;;;;;3.75;2.90;;;7.50;69.20;;;;;;5044576;28;20026;-74
2022/04/11 06:36:10;;;;;;;4.10;3.30;;;7.50;69.20;;;;;;5030156;28;20125;-73
2022/04/11 06:38:36;;;;;;;4.05;3.00;;;7.40;69.20;;;;;;5023811;28;20080;-74
2022/04/11 06:41:03;;;;;;;4.78;3.47;;;7.50;69.20;;;;;;5014620;28;20103;-73
2022/04/11 06:43:29;;;;;;;4.10;3.15;;;7.50;69.20;;;;;;5009951;28;20065;-73
2022/04/11 06:46:08;;;;;;;4.25;3.05;;;7.50;69.20;;;;;;5047362;28;20474;-74
2022/04/11 06:48:34;;;;;;;3.75;2.90;;;7.50;69.20;;;;;;5028731;28;20160;-74
2022/04/11 06:51:00;;;;;;;3.83;2.92;;;7.50;69.20;;;;;;5013058;28;20043;-75
2022/04/11 06:53:26;;;;;;;3.97;3.05;;;7.50;69.30;;;;;;5029862;28;20026;-73
2022/04/11 06:55:51;;;;;;;4.18;3.03;;;7.50;69.30;;;;;;5031136;28;20523;-74
2022/04/11 06:58:17;;;;;;;4.32;3.30;;;7.50;69.30;;;;;;5029511;28;20028;-73
2022/04/11 07:00:44;;;;;;;4.68;3.45;;;7.50;69.30;;;;;;5029731;28;20035;-73
2022/04/11 07:03:10;;;;;;;4.78;3.42;;;7.50;69.30;;;;;;5029311;28;20022;-74
2022/04/11 07:05:39;;;;;;;3.95;3.30;;;7.50;69.30;;;;;;5031997;28;20083;-74
2022/04/11 07:08:06;;;;;;;4.97;3.30;;;7.50;69.40;;;;;;5051301;28;20102;-73
2022/04/11 07:10:33;;;;;;;4.07;2.97;;;7.50;69.30;;;;;;5070752;28;20549;-74
2022/04/11 07:12:59;;;;;;;4.80;3.22;;;7.50;69.30;;;;;;5052333;28;20033;-74
2022/04/11 07:15:25;;;;;;;4.78;3.40;;;7.50;69.30;;;;;;5036073;28;20124;-74
2022/04/11 07:17:51;;;;;;;3.97;3.10;;;7.50;69.30;;;;;;5071181;28;20369;-74
2022/04/11 07:20:17;;;;;;;5.03;3.80;;;7.60;69.40;;;;;;5052694;28;20033;-76
2022/04/11 07:22:43;;;;;;;4.38;3.47;;;7.60;69.40;;;;;;5043789;28;20094;-74
2022/04/11 07:25:09;;;;;;;4.93;3.63;;;7.60;69.40;;;;;;5053127;28;20492;-75
2022/04/11 07:27:36;;;;;;;4.75;3.33;;;7.60;69.40;;;;;;5028325;28;20469;-73
2022/04/11 07:30:03;;;;;;;4.03;3.10;;;7.60;69.40;;;;;;5074926;28;20029;-74
2022/04/11 07:32:29;;;;;;;4.65;3.33;;;7.60;69.40;;;;;;5051735;28;20419;-74
2022/04/11 07:34:57;;;;;;;4.68;3.67;;;7.60;69.40;;;;;;5053188;28;20074;-75
2022/04/11 07:37:25;;;;;;;4.22;3.15;;;7.60;69.50;;;;;;5049297;28;20115;-74
2022/04/11 07:39:52;;;;;;;5.05;3.55;;;7.60;69.50;;;;;;5066540;28;20481;-74
2022/04/11 07:42:18;;;;;;;4.45;3.67;;;7.70;69.50;;;;;;5068172;28;20056;-73
2022/04/11 07:44:44;;;;;;;4.75;3.50;;;7.70;69.50;;;;;;5028476;28;20052;-75
2022/04/11 07:47:10;;;;;;;4.30;3.60;;;7.70;69.50;;;;;;5039643;28;20032;-74
2022/04/11 07:49:36;;;;;;;4.93;3.75;;;7.70;69.50;;;;;;5075557;28;20123;-74
2022/04/11 07:52:02;;;;;;;4.50;3.55;;;7.70;69.60;;;;;;5018885;28;20454;-74
2022/04/11 07:54:27;;;;;;;4.32;3.47;;;7.70;69.50;;;;;;5069438;28;20028;-74
2022/04/11 07:56:53;;;;;;;5.20;3.72;;;7.80;69.60;;;;;;5052010;28;20048;-74
2022/04/11 07:59:19;;;;;;;5.10;3.40;;;7.80;69.60;;;;;;5051335;28;20492;-74
2022/04/11 08:01:45;;;;;;;5.03;3.47;;;7.80;69.60;;;;;;5051686;28;20023;-76
2022/04/11 08:04:10;;;;;;;4.57;3.80;;;7.80;69.60;;;;;;5034607;28;20017;-73
2022/04/11 08:06:36;;;;;;;4.72;3.65;;;7.80;69.60;;;;;;5035952;28;20113;-74
2022/04/11 08:09:02;;;;;;;5.10;3.67;;;7.90;69.70;;;;;;5051149;28;20025;-73
2022/04/11 08:11:28;;;;;;;4.93;3.67;;;7.90;69.70;;;;;;5018710;28;20052;-74
2022/04/11 08:13:53;;;;;;;5.30;4.15;;;7.90;69.70;;;;;;5044000;28;20025;-74
2022/04/11 08:16:20;;;;;;;5.32;3.85;;;7.90;69.70;;;;;;5073041;28;20029;-75
2022/04/11 08:18:46;;;;;;;5.20;3.55;;;8.00;69.80;;;;;;5035200;28;20036;-74
2022/04/11 08:21:12;;;;;;;4.60;3.90;;;8.00;69.70;;;;;;5051065;28;20029;-73
2022/04/11 08:23:37;;;;;;;5.18;3.90;;;8.00;69.70;;;;;;5069163;28;20082;-74
2022/04/11 08:26:03;;;;;;;5.75;4.03;;;8.00;69.70;;;;;;5052331;28;20141;-74
2022/04/11 08:28:29;;;;;;;4.90;4.00;;;8.10;69.80;;;;;;5049499;28;20033;-73
2022/04/11 08:30:55;;;;;;;4.82;3.85;;;8.10;69.80;;;;;;5035152;28;20500;-74
2022/04/11 08:33:20;;;;;;;5.28;3.80;;;8.10;69.80;;;;;;5068969;28;20025;-74
2022/04/11 08:35:46;;;;;;;5.45;4.07;;;8.20;69.80;;;;;;5053110;28;20071;-74
2022/04/11 08:38:12;;;;;;;5.18;4.00;;;8.20;69.80;;;;;;5068778;28;20032;-74
2022/04/11 08:40:38;;;;;;;5.15;3.88;;;8.30;69.80;;;;;;5071236;28;20639;-75
2022/04/11 08:43:05;;;;;;;5.07;3.78;;;8.30;69.80;;;;;;5069280;28;20016;-75
2022/04/11 08:45:31;;;;;;;5.53;4.30;;;8.40;69.80;;;;;;5055229;28;20032;-75
2022/04/11 08:47:57;;;;;;;4.80;3.85;;;8.40;69.80;;;;;;5043836;28;20029;-75
2022/04/11 08:50:24;;;;;;;5.00;3.60;;;8.50;69.80;;;;;;5034503;28;20062;-75
2022/04/11 08:52:52;;;;;;;5.60;4.10;;;8.60;69.80;;;;;;5050791;28;20016;-74
2022/04/11 08:55:18;;;;;;;4.93;3.97;;;8.60;69.70;;;;;;5054833;28;20103;-75
2022/04/11 08:57:44;;;;;;;4.95;3.92;;;8.60;69.70;;;;;;5068506;28;20123;-75
2022/04/11 09:00:15;;;;;;;5.90;3.95;;;8.70;69.60;;;;;;5059585;28;20078;-76
2022/04/11 09:02:43;;;;;;;5.28;3.63;;;8.80;69.70;;;;;;5050778;28;20032;-75
2022/04/11 09:05:10;;;;;;;5.70;4.03;;;8.90;69.70;;;;;;5050718;28;20028;-74
2022/04/11 09:07:45;;;;;;;6.03;4.07;;;8.90;69.60;;;;;;5051052;28;20430;-74
2022/04/11 09:10:12;;;;;;;5.22;4.00;;;9.00;69.70;;;;;;5052829;28;20067;-75
2022/04/11 09:12:56;;;;;;;5.53;4.07;;;9.10;69.60;;;;;;5054455;28;20051;-74
2022/04/11 09:15:24;;;;;;;5.00;3.65;;;9.20;69.70;;;;;;5053065;28;20097;-74
2022/04/11 09:17:50;;;;;;;4.90;4.03;;;9.30;69.50;;;;;;5037811;28;20137;-74
2022/04/11 09:20:18;;;;;;;4.93;3.78;;;9.30;69.50;;;;;;5046693;28;20036;-79
2022/04/11 09:22:44;;;;;;;4.40;3.67;;;9.40;69.50;;;;;;5054626;28;20025;-74
2022/04/11 09:25:17;;;;;;;5.00;3.80;;;9.50;69.50;;;;;;5038178;28;20118;-74
2022/04/11 09:27:44;;;;;;;4.70;3.55;;;9.60;69.50;;;;;;5039358;28;20036;-74
2022/04/11 09:30:28;;;;;;;5.20;3.65;;;9.70;69.50;;;;;;5079015;28;20138;-74
2022/04/11 09:32:57;;;;;;;4.65;3.35;;;9.80;69.60;;;;;;5056874;28;20504;-74
2022/04/11 09:35:25;;;;;;;5.40;3.72;;;9.90;69.50;;;;;;5071834;28;20079;-75
2022/04/11 09:38:10;;;;;;;4.90;3.58;;;10.00;69.50;;;;;;5072728;28;20491;-76
2022/04/11 09:40:40;;;;;;;4.22;3.22;;;10.10;69.70;;;;;;5054634;28;20028;-75
2022/04/11 09:43:07;;;;;;;4.78;3.47;;;10.20;69.60;;;;;;5072771;28;20111;-74
2022/04/11 09:45:38;;;;;;;4.13;3.28;;;10.30;69.50;;;;;;5055559;28;20040;-77
2022/04/11 09:48:05;;;;;;;3.92;3.30;;;10.40;69.90;;;;;;5053616;28;20872;-75
2022/04/11 09:50:32;;;;;;;4.78;3.65;;;10.60;69.60;;;;;;5038040;28;20017;-74
2022/04/11 09:53:14;;;;;;;4.10;3.30;;;10.60;69.90;;;;;;5071476;28;20074;-76
2022/04/11 09:55:42;;;;;;;5.13;3.53;;;10.70;69.60;;;;;;5053706;28;20602;-74
2022/04/11 09:58:08;;;;;;;4.40;3.20;;;10.80;69.30;;;;;;5071490;28;20052;-75
2022/04/11 10:00:40;;;;;;;3.63;2.88;;;11.00;69.40;;;;;;5037571;28;20428;-75
2022/04/11 10:03:06;;;;;;;3.85;3.00;;;11.10;69.40;;;;;;5053273;28;20074;-74
2022/04/11 10:05:34;;;;;;;4.53;3.00;;;11.20;69.30;;;;;;5036970;28;20060;-75
2022/04/11 10:08:01;;;;;;;4.38;3.05;;;11.30;69.20;;;;;;5051862;28;20017;-74
2022/04/11 10:10:28;;;;;;;4.40;3.20;;;11.40;69.20;;;;;;5053433;28;20028;-74
2022/04/11 10:12:56;;;;;;;4.43;2.90;;;11.50;69.30;;;;;;5036742;28;20036;-74
2022/04/11 10:15:23;;;;;;;4.90;3.15;;;11.60;69.20;;;;;;5052794;28;20058;-74
2022/04/11 10:17:50;;;;;;;4.47;3.03;;;11.70;69.20;;;;;;5037240;28;20082;-74
2022/04/11 10:20:31;;;;;;;3.85;2.90;;;11.80;69.20;;;;;;5069860;28;20618;-74
2022/04/11 10:23:21;;;;;;;4.88;2.67;;;11.90;69.20;;;;;;5052398;28;20078;-74
2022/04/11 10:25:49;;;;;;;3.05;2.40;;;12.00;69.00;;;;;;5053516;28;20054;-74
2022/04/11 10:28:23;;;;;;;4.47;2.78;;;12.20;69.00;;;;;;5053174;28;20059;-74
2022/04/11 10:31:09;;;;;;;3.42;2.42;;;12.30;69.50;;;;;;5053438;28;20700;-74
2022/04/11 10:33:44;;;;;;;5.18;2.83;;;12.40;69.00;;;;;;5053315;28;20036;-74
2022/04/11 10:36:30;;;;;;;3.03;2.47;;;12.40;68.70;;;;;;5052677;28;20112;-75
2022/04/11 10:39:14;;;;;;;3.65;2.55;;;12.60;68.60;;;;;;5052230;28;20052;-76
2022/04/11 10:41:58;;;;;;;3.05;2.38;;;12.70;68.50;;;;;;5050043;28;20025;-74
2022/04/11 10:44:34;;;;;;;3.75;2.38;;;12.80;68.50;;;;;;5052235;28;20029;-75
2022/04/11 10:47:22;;;;;;;2.58;2.08;;;12.90;68.40;;;;;;5070473;28;20035;-74
2022/04/11 10:49:48;;;;;;;3.45;2.22;;;13.00;68.50;;;;;;5063011;28;20409;-75
2022/04/11 10:52:33;;;;;;;3.08;2.33;;;13.10;68.40;;;;;;5052968;28;20119;-74
2022/04/11 10:55:17;;;;;;;2.90;2.42;;;13.20;68.50;;;;;;5050277;28;20146;-74
2022/04/11 10:57:50;;;;;;;2.60;2.13;;;13.30;68.50;;;;;;5053004;28;20174;-74
2022/04/11 11:00:24;;;;;;;4.85;2.60;;;13.50;68.40;;;;;;5051926;28;20032;-74
2022/04/11 11:02:53;;;;;;;2.85;2.15;;;13.50;68.30;;;;;;5071047;28;20035;-74
2022/04/11 11:05:38;;;;;;;2.78;2.17;;;13.70;68.30;;;;;;5052479;28;20029;-75
2022/04/11 11:08:06;;;;;;;2.83;2.10;;;13.80;68.30;;;;;;5066987;28;20047;-74
2022/04/11 11:11:01;;;;;;;2.42;2.15;;;13.90;68.20;;;;;;5067837;28;20063;-74
2022/04/11 11:13:36;;;;;;;3.00;2.30;;;14.00;68.30;;;;;;5051949;28;20032;-74
2022/04/11 11:16:07;;;;;;;2.88;2.40;;;14.10;68.20;;;;;;5047953;28;20465;-75
2022/04/11 11:21:33;;;;;;;3.00;2.17;;;14.30;68.20;;;;;;5069562;28;20025;-75
2022/04/11 11:24:08;;;;;;;4.85;2.45;;;14.30;68.10;;;;;;5063661;28;20032;-74
2022/04/11 11:26:46;;;;;;;3.13;2.00;;;14.50;68.10;;;;;;5069306;28;20028;-74
2022/04/11 11:29:24;;;;;;;2.70;2.05;;;14.60;68.00;;;;;;5035267;28;20039;-76
2022/04/11 11:31:52;;;;;;;5.25;2.40;;;14.70;68.10;;;;;;5051334;28;20028;-75
2022/04/11 11:34:20;;;;;;;2.83;2.40;;;14.70;67.90;;;;;;5031430;28;20120;-74
2022/04/11 11:36:47;;;;;;;3.13;2.40;;;14.80;67.90;;;;;;5071394;28;20206;-76
2022/04/11 11:39:19;;;;;;;3.30;2.45;;;14.90;67.90;;;;;;5052002;28;20060;-76
2022/04/11 11:41:50;;;;;;;3.55;2.50;;;15.00;67.90;;;;;;5051875;28;20033;-75
2022/04/11 11:44:17;;;;;;;3.42;2.40;;;15.10;68.10;;;;;;5071352;28;20029;-74
2022/04/11 11:46:46;;;;;;;3.35;2.47;;;15.10;68.00;;;;;;5035424;28;20040;-74
2022/04/11 11:49:11;;;;;;;2.50;2.30;;;15.20;68.10;;;;;;5070013;28;20089;-75
2022/04/11 11:51:37;;;;;;;4.75;2.97;;;15.30;68.20;;;;;;5052029;28;20021;-76
2022/04/11 11:54:03;;;;;;;3.67;2.72;;;15.40;68.20;;;;;;5051450;28;20548;-73
2022/04/11 11:56:46;;;;;;;3.65;2.65;;;15.50;68.30;;;;;;5069280;28;20552;-75
2022/04/11 11:59:13;;;;;;;3.53;2.65;;;15.50;68.30;;;;;;5050235;28;20032;-75
2022/04/11 12:01:39;;;;;;;3.72;2.42;;;15.60;68.20;;;;;;5034865;28;20052;-75
2022/04/11 12:04:18;;;;;;;3.00;2.42;;;15.70;68.30;;;;;;5042525;28;20044;-74
2022/04/11 12:06:45;;;;;;;3.30;2.40;;;15.70;68.30;;;;;;5068779;28;20044;-74
2022/04/11 12:09:10;;;;;;;3.00;2.47;;;15.80;68.20;;;;;;5069587;28;20108;-74
2022/04/11 12:11:36;;;;;;;3.63;2.47;;;15.80;68.20;;;;;;5050645;28;20115;-75
2022/04/11 12:14:09;;;;;;;3.60;2.50;;;15.90;68.30;;;;;;5034810;28;20428;-74
2022/04/11 12:16:38;;;;;;;3.28;2.78;;;15.90;68.20;;;;;;5068976;28;20039;-74
2022/04/11 12:19:05;;;;;;;3.40;2.47;;;16.00;68.30;;;;;;5035108;28;20016;-73
2022/04/11 12:21:32;;;;;;;3.65;2.42;;;16.10;68.40;;;;;;5069226;28;20016;-73
2022/04/11 12:23:58;;;;;;;3.80;2.90;;;16.10;68.40;;;;;;5052777;28;20028;-74
2022/04/11 12:26:35;;;;;;;3.60;2.92;;;16.20;68.40;;;;;;5052132;28;20111;-74
2022/04/11 12:29:15;;;;;;;4.07;2.90;;;16.20;68.40;;;;;;5035515;28;20020;-74
2022/04/11 12:31:57;;;;;;;3.70;2.80;;;16.30;68.40;;;;;;5069461;28;20024;-74
2022/04/11 12:34:38;;;;;;;3.58;2.60;;;16.30;68.40;;;;;;5046990;28;20028;-75
2022/04/11 12:37:05;;;;;;;3.45;2.67;;;16.30;68.40;;;;;;5082344;28;20116;-73
2022/04/11 12:39:31;;;;;;;3.47;2.78;;;16.40;68.40;;;;;;5069319;28;20028;-74
2022/04/11 12:41:58;;;;;;;3.17;2.75;;;16.50;68.40;;;;;;5032751;28;20067;-75
2022/04/11 12:44:34;;;;;;;3.80;2.80;;;16.50;68.40;;;;;;5035551;28;20461;-73
2022/04/11 12:47:00;;;;;;;3.90;2.90;;;16.50;68.40;;;;;;5070959;28;20036;-74
2022/04/11 12:49:45;;;;;;;3.90;3.00;;;16.60;68.40;;;;;;5054938;28;20043;-74
2022/04/11 12:52:12;;;;;;;3.78;2.92;;;16.60;68.30;;;;;;5072431;28;20048;-75
2022/04/11 12:54:41;;;;;;;3.85;2.78;;;16.70;68.30;;;;;;5054906;28;20166;-74
2022/04/11 12:57:08;;;;;;;4.10;2.80;;;16.70;68.20;;;;;;5058225;28;20040;-74
2022/04/11 12:59:42;;;;;;;3.97;2.80;;;16.70;68.10;;;;;;5045718;28;20127;-74
2022/04/11 13:02:14;;;;;;;4.50;3.00;;;16.80;68.10;;;;;;5073564;28;20024;-75